Terminal Aerodrome Forecast
Issued by NWS

Home | Current Version | Previous Version | Text Only | Print | Product List | Glossary On
Versions: 1 2 3 4 5 6 7 8 9 10 11 12 13 14 15 16 17 18 19 20 21 22 23 24 25 26
000
FTUS46 KSEW 010500
TAFPAE
TAF
KPAE 010540Z 0106/0206 VRB03KT P6SM OVC050
     FM010900 VRB03KT P6SM FEW018 BKN035
     FM011100 VRB03KT P6SM OVC018
     FM011800 19006KT P6SM BKN025 BKN200
     FM012000 25006KT P6SM SCT035 BKN200
     FM020000 32004KT P6SM FEW050 BKN200=

USA.gov is the U.S. government's official web portal to all federal, state and local government web resources and services.